Time;durP1;ratioP1;P1;durP2;ratioP2;P2;SDS_P1;SDS_P2;PMS_P1;PMS_P2;Temp;Humidity;BMP_temperature;BMP_pressure;BME280_temperature;BME280_humidity;BME280_pressure;Samples;Min_cycle;Max_cycle;Signal;HPM_P1;HPM_P2
2021/05/23 00:00:30;;;;;;;8.13;4.43;;;;;;;8.96;72.88;99460.67;126442;1101;103091;-80
2021/05/23 00:03:20;;;;;;;6.40;4.47;;;;;;;8.93;72.83;99463.39;126479;1101;103036;-80
2021/05/23 00:06:09;;;;;;;9.57;5.10;;;;;;;8.87;73.21;99453.23;126499;1101;103234;-79
2021/05/23 00:08:57;;;;;;;8.50;5.00;;;;;;;8.86;73.38;99458.49;126532;1101;103416;-78
2021/05/23 00:11:45;;;;;;;8.40;4.15;;;;;;;8.83;73.04;99449.06;126434;1101;102920;-78
2021/05/23 00:14:34;;;;;;;7.17;4.20;;;;;;;8.85;73.28;99462.84;126440;1101;102939;-80
2021/05/23 00:17:22;;;;;;;8.40;4.67;;;;;;;8.87;73.42;99457.59;126486;1101;102946;-78
2021/05/23 00:20:11;;;;;;;8.17;4.70;;;;;;;8.87;72.93;99450.63;126184;1101;102977;-78
2021/05/23 00:22:59;;;;;;;6.47;4.50;;;;;;;8.88;72.90;99465.33;126553;1096;103089;-80
2021/05/23 00:25:47;;;;;;;9.07;4.67;;;;;;;8.89;72.83;99459.22;126453;1101;103019;-79
2021/05/23 00:28:36;;;;;;;10.00;4.50;;;;;;;8.91;73.18;99452.20;126481;1095;102763;-79
2021/05/23 00:31:24;;;;;;;6.63;4.23;;;;;;;8.92;72.71;99456.50;126490;1101;101924;-79
2021/05/23 00:34:14;;;;;;;6.10;4.03;;;;;;;8.94;72.76;99462.48;126196;1101;103002;-79
2021/05/23 00:37:02;;;;;;;5.33;3.83;;;;;;;8.96;72.65;99465.88;126441;1097;103097;-78
2021/05/23 00:39:49;;;;;;;7.23;4.13;;;;;;;8.98;72.73;99464.09;126458;1101;102978;-78
2021/05/23 00:42:38;;;;;;;8.27;4.20;;;;;;;8.99;72.46;99470.98;126423;1101;103024;-79
2021/05/23 00:45:26;;;;;;;7.57;4.20;;;;;;;9.00;72.75;99471.83;126466;1101;103026;-78
2021/05/23 00:48:15;;;;;;;11.07;4.60;;;;;;;8.98;72.83;99477.09;126444;1101;103072;-79
2021/05/23 00:51:02;;;;;;;7.17;4.00;;;;;;;8.95;72.46;99479.78;126446;1101;103038;-79
2021/05/23 00:53:50;;;;;;;8.37;4.17;;;;;;;8.95;72.40;99479.78;126182;1101;102344;-78
2021/05/23 00:56:38;;;;;;;6.80;3.90;;;;;;;8.93;72.79;99471.19;126408;1101;102998;-79
2021/05/23 00:59:27;;;;;;;8.07;4.60;;;;;;;8.92;72.58;99482.50;126462;1101;103052;-79
2021/05/23 01:02:40;;;;;;;9.80;3.83;;;;;;;8.91;72.56;99483.41;126401;1101;102956;-79
2021/05/23 01:05:28;;;;;;;8.07;4.33;;;;;;;8.89;72.63;99477.42;126452;1101;103039;-79
2021/05/23 01:08:16;;;;;;;6.60;3.93;;;;;;;8.88;72.59;99480.92;126502;1101;103011;-79
2021/05/23 01:11:28;;;;;;;6.57;3.90;;;;;;;8.87;72.82;99484.44;126454;1101;102988;-79
2021/05/23 01:14:36;;;;;;;8.23;3.97;;;;;;;8.86;72.97;99487.94;126438;1101;103074;-79
2021/05/23 01:17:36;;;;;;;6.60;4.33;;;;;;;8.84;72.73;99487.16;126480;1097;102960;-79
2021/05/23 01:20:55;;;;;;;7.67;3.60;;;;;;;8.82;72.81;99483.77;126463;1101;102956;-79
2021/05/23 01:24:00;;;;;;;6.73;3.70;;;;;;;8.80;72.81;99495.98;126574;1095;102961;-80
2021/05/23 01:26:53;;;;;;;7.60;4.07;;;;;;;8.80;72.80;99495.98;126454;1101;103107;-79
2021/05/23 01:29:41;;;;;;;6.37;3.70;;;;;;;8.80;73.14;99490.78;126446;1101;103111;-80
2021/05/23 01:32:29;;;;;;;9.40;4.00;;;;;;;8.78;73.17;99483.01;126446;1101;103084;-80
2021/05/23 01:35:21;;;;;;;6.93;3.40;;;;;;;8.77;72.70;99496.06;126524;1101;101827;-79
2021/05/23 01:38:12;;;;;;;8.77;4.27;;;;;;;8.77;73.06;99488.27;126491;1101;102991;-78
2021/05/23 01:41:05;;;;;;;8.03;3.70;;;;;;;8.78;72.63;99500.36;126404;1101;102953;-79
2021/05/23 01:43:53;;;;;;;10.37;3.57;;;;;;;8.78;72.79;99497.76;126516;1100;103091;-79
2021/05/23 01:46:44;;;;;;;6.17;3.33;;;;;;;8.79;73.04;99496.85;126476;1101;102776;-79
2021/05/23 01:49:32;;;;;;;8.00;4.07;;;;;;;8.79;72.90;99492.50;126456;1101;102998;-78
2021/05/23 01:52:21;;;;;;;5.83;3.37;;;;;;;8.81;72.41;99500.27;126479;1101;102945;-79
2021/05/23 01:55:10;;;;;;;6.63;3.33;;;;;;;8.82;72.59;99499.37;126429;1101;103003;-78
2021/05/23 01:57:58;;;;;;;6.67;3.20;;;;;;;8.83;72.46;99485.46;126471;1101;102836;-78
2021/05/23 02:00:49;;;;;;;6.90;3.63;;;;;;;8.86;72.45;99485.34;126464;1101;103000;-78
2021/05/23 02:03:38;;;;;;;5.93;3.30;;;;;;;8.88;72.49;99496.53;126489;1101;102937;-78
2021/05/23 02:06:27;;;;;;;4.37;3.10;;;;;;;8.93;72.55;99510.20;126464;1101;103036;-78
2021/05/23 02:09:16;;;;;;;6.93;3.00;;;;;;;8.99;72.34;99507.39;126461;1100;103151;-78
2021/05/23 02:12:06;;;;;;;5.80;3.10;;;;;;;9.05;72.34;99504.55;126504;1101;103448;-79
2021/05/23 02:14:54;;;;;;;6.37;3.37;;;;;;;9.13;72.45;99519.01;126427;1101;102805;-78
2021/05/23 02:17:44;;;;;;;5.03;3.63;;;;;;;9.19;72.22;99516.20;126504;1101;103006;-78
2021/05/23 02:20:33;;;;;;;7.30;3.17;;;;;;;9.23;71.94;99525.58;126497;1101;103039;-80
2021/05/23 02:23:24;;;;;;;7.67;3.10;;;;;;;9.26;71.93;99531.50;126459;1101;102963;-79
2021/05/23 02:26:12;;;;;;;6.90;3.20;;;;;;;9.29;71.77;99538.34;126504;1100;103059;-79
2021/05/23 02:29:00;;;;;;;6.07;2.83;;;;;;;9.30;71.98;99535.67;126496;1100;102992;-79
2021/05/23 02:31:48;;;;;;;4.63;3.30;;;;;;;9.31;71.92;99541.73;126526;1093;101916;-79
2021/05/23 02:34:47;;;;;;;6.00;3.33;;;;;;;9.31;71.86;99539.13;126485;1101;103063;-79
2021/05/23 02:37:36;;;;;;;5.07;2.70;;;;;;;9.28;72.20;99537.49;126461;1101;102930;-79
2021/05/23 02:40:28;;;;;;;5.20;2.80;;;;;;;9.30;72.02;99538.28;126535;1093;102996;-79
2021/05/23 02:43:17;;;;;;;5.10;3.00;;;;;;;9.31;71.98;99528.72;126420;1100;102928;-79
2021/05/23 02:46:05;;;;;;;6.50;2.60;;;;;;;9.32;72.14;99535.62;126422;1101;102959;-79
2021/05/23 02:48:53;;;;;;;4.87;3.00;;;;;;;9.33;72.11;99537.31;126465;1101;102926;-79
2021/05/23 02:51:41;;;;;;;5.65;2.90;;;;;;;9.35;71.80;99538.97;126423;1101;103035;-79
2021/05/23 02:54:30;;;;;;;6.53;2.60;;;;;;;9.42;71.90;99539.58;126495;1101;102969;-79
2021/05/23 02:57:17;;;;;;;4.93;2.57;;;;;;;9.45;71.78;99539.45;126454;1101;102982;-79
2021/05/23 03:00:09;;;;;;;4.53;2.50;;;;;;;9.51;71.54;99538.35;126484;1100;102696;-79
2021/05/23 03:02:57;;;;;;;4.03;2.50;;;;;;;9.56;71.71;99544.25;126483;1101;102975;-79
2021/05/23 03:05:46;;;;;;;3.80;2.60;;;;;;;9.59;71.49;99544.97;126445;1100;103045;-79
2021/05/23 03:08:34;;;;;;;5.70;2.50;;;;;;;9.63;71.33;99545.70;126485;1101;103052;-79
2021/05/23 03:11:22;;;;;;;6.77;2.53;;;;;;;9.67;71.47;99545.50;126482;1101;103754;-79
2021/05/23 03:14:12;;;;;;;5.17;2.87;;;;;;;9.73;71.26;99552.25;126497;1100;102921;-79
2021/05/23 03:16:59;;;;;;;;;;;;;;;9.79;71.08;99551.14;126548;1101;102958;-79
2021/05/23 03:19:47;;;;;;;4.90;2.77;;;;;;;9.81;71.13;99544.96;126427;1101;102923;-79
2021/05/23 03:22:36;;;;;;;3.73;2.57;;;;;;;9.86;70.99;99547.38;126514;1100;102929;-79
2021/05/23 03:25:26;;;;;;;5.83;2.63;;;;;;;9.90;70.88;99548.97;126561;1101;102755;-79
2021/05/23 03:28:15;;;;;;;5.17;2.83;;;;;;;9.94;70.76;99546.17;126467;1093;102966;-79
2021/05/23 03:31:03;;;;;;;7.30;2.60;;;;;;;9.98;70.55;99549.49;126486;1100;102732;-79
2021/05/23 03:33:51;;;;;;;6.77;2.97;;;;;;;9.99;70.53;99548.58;126478;1100;102958;-79
2021/05/23 03:36:39;;;;;;;4.73;2.53;;;;;;;9.97;70.26;99551.25;126477;1100;103014;-79
2021/05/23 03:39:27;;;;;;;5.53;2.80;;;;;;;9.97;70.59;99550.41;126491;1093;103969;-79
2021/05/23 03:42:14;;;;;;;;;;;;;;;9.97;70.44;99547.80;126518;1101;103123;-79
2021/05/23 03:45:04;;;;;;;5.93;2.87;;;;;;;9.97;70.41;99555.61;126475;1101;102955;-79
2021/05/23 03:47:52;;;;;;;5.43;2.70;;;;;;;9.98;70.38;99557.30;126598;1093;102760;-79
2021/05/23 03:50:40;;;;;;;4.20;2.50;;;;;;;10.00;70.20;99565.91;126570;1098;103415;-79
2021/05/23 03:53:29;;;;;;;6.73;2.60;;;;;;;10.01;70.19;99559.78;126569;1098;102984;-79
2021/05/23 03:56:16;;;;;;;4.13;2.70;;;;;;;10.02;70.55;99558.88;126585;1098;103370;-79
2021/05/23 03:59:04;;;;;;;6.27;3.03;;;;;;;10.04;70.64;99556.20;126592;1093;102985;-79
2021/05/23 04:01:52;;;;;;;4.63;2.43;;;;;;;10.02;70.53;99552.81;126561;1098;103355;-80
2021/05/23 04:05:06;;;;;;;;;;;;;;;;;;;;;
2021/05/23 04:07:59;;;;;;;6.77;2.60;;;;;;;10.00;70.26;99560.69;126624;1098;102952;-80
2021/05/23 04:10:55;;;;;;;9.33;2.63;;;;;;;9.99;70.56;99553.79;126563;1092;103380;-79
2021/05/23 04:13:44;;;;;;;4.07;2.60;;;;;;;9.99;70.41;99559.84;126476;1100;102927;-79
2021/05/23 04:16:34;;;;;;;4.73;2.30;;;;;;;10.00;70.19;99556.33;126518;1098;103065;-79
2021/05/23 04:19:23;;;;;;;6.77;2.97;;;;;;;10.04;70.38;99562.26;126521;1099;103100;-79
2021/05/23 04:22:11;;;;;;;5.00;2.97;;;;;;;10.11;70.17;99563.72;126660;1098;103015;-78
2021/05/23 04:25:01;;;;;;;5.40;2.80;;;;;;;10.22;70.10;99565.90;126735;1098;102911;-78
2021/05/23 04:27:53;;;;;;;6.70;2.90;;;;;;;10.32;69.84;99563.77;126572;1099;103016;-79
2021/05/23 04:30:41;;;;;;;4.67;2.60;;;;;;;10.37;69.67;99565.27;126547;1098;103158;-79
2021/05/23 04:33:30;;;;;;;3.60;2.60;;;;;;;10.43;69.70;99577.22;126496;1093;102965;-80
2021/05/23 04:36:17;;;;;;;;;;;;;;;10.47;69.41;99581.38;126554;1098;103103;-80
2021/05/23 04:39:06;;;;;;;4.40;2.17;;;;;;;10.50;69.44;99582.09;126559;1098;102026;-78
2021/05/23 04:41:54;;;;;;;4.13;2.63;;;;;;;10.57;69.41;99587.88;126531;1093;102009;-78
2021/05/23 04:45:05;;;;;;;3.28;2.23;;;;;;;10.72;69.59;99584.63;126654;1098;103091;-79
2021/05/23 04:47:52;;;;;;;3.50;2.40;;;;;;;10.88;69.46;99587.41;126443;1093;102938;-80
2021/05/23 04:50:40;;;;;;;2.93;2.20;;;;;;;11.03;69.19;99591.11;126525;1098;103186;-80
2021/05/23 04:53:28;;;;;;;;;;;;;;;11.26;68.84;99601.36;126584;1098;103011;-78
2021/05/23 04:56:16;;;;;;;5.53;2.17;;;;;;;11.48;68.48;99596.00;126674;1098;105849;-78
2021/05/23 04:59:04;;;;;;;5.07;2.50;;;;;;;11.68;67.98;99595.11;126543;1098;102939;-78
2021/05/23 05:01:52;;;;;;;3.73;2.30;;;;;;;11.89;67.71;99609.80;126556;1098;102928;-80
2021/05/23 05:04:39;;;;;;;;;;;;;;;12.13;67.29;99601.69;126628;1098;102942;-79
2021/05/23 05:07:27;;;;;;;5.03;2.50;;;;;;;12.29;67.20;99600.02;126584;1098;103090;-79
2021/05/23 05:10:16;;;;;;;6.77;2.70;;;;;;;12.55;66.65;99604.78;126583;1098;103115;-79
2021/05/23 05:13:04;;;;;;;5.33;2.43;;;;;;;12.78;66.20;99602.78;126521;1098;102957;-79
2021/05/23 05:15:52;;;;;;;5.40;2.47;;;;;;;13.06;65.79;99602.19;126593;1098;102960;-79
2021/05/23 05:18:40;;;;;;;4.27;2.33;;;;;;;13.26;64.57;99596.77;126571;1098;103001;-79
2021/05/23 05:21:28;;;;;;;;;;;;;;;13.42;64.07;99595.02;126608;1098;102923;-79
2021/05/23 05:24:16;;;;;;;5.67;2.33;;;;;;;13.68;64.14;99601.48;126556;1093;102922;-79
2021/05/23 05:27:04;;;;;;;3.47;2.00;;;;;;;14.00;62.26;99604.05;126516;1092;102923;-79
2021/05/23 05:29:52;;;;;;;3.67;1.87;;;;;;;14.43;62.69;99598.09;126584;1093;102930;-79
2021/05/23 05:32:41;;;;;;;4.73;2.07;;;;;;;15.73;61.58;99595.44;126552;1093;102882;-79
2021/05/23 05:35:29;;;;;;;2.43;1.93;;;;;;;17.92;58.14;99600.69;126588;1098;102955;-79
2021/05/23 05:38:17;;;;;;;3.17;1.83;;;;;;;20.01;54.10;99583.72;126717;1098;102923;-80
2021/05/23 05:41:08;;;;;;;2.83;2.17;;;;;;;21.93;51.19;99568.06;126645;1098;103094;-80
2021/05/23 05:43:55;;;;;;;2.70;1.67;;;;;;;23.53;47.01;99576.20;126664;1098;102992;-80
2021/05/23 05:46:43;;;;;;;4.47;1.97;;;;;;;25.02;43.43;99576.45;126636;1098;102991;-80
2021/05/23 05:49:31;;;;;;;2.87;1.90;;;;;;;26.04;42.50;99586.22;126791;1093;102956;-81
2021/05/23 05:52:19;;;;;;;2.77;1.63;;;;;;;27.41;41.27;99573.73;126699;1093;102924;-80
2021/05/23 05:55:07;;;;;;;2.97;1.70;;;;;;;28.68;38.99;99573.28;126700;1098;103046;-80
2021/05/23 05:57:55;;;;;;;3.10;1.57;;;;;;;29.75;37.29;99574.62;126681;1098;103384;-80
2021/05/23 06:00:43;;;;;;;4.40;1.70;;;;;;;30.45;35.48;99581.16;126595;1093;103087;-80
2021/05/23 06:03:32;;;;;;;2.43;1.30;;;;;;;31.10;32.78;99574.64;126658;1098;103030;-80
2021/05/23 06:06:20;;;;;;;2.23;1.50;;;;;;;31.80;30.49;99584.36;126453;1098;101923;-79
2021/05/23 06:09:08;;;;;;;4.07;1.60;;;;;;;31.86;27.91;99577.31;126545;1098;103165;-80
2021/05/23 06:11:55;;;;;;;4.23;1.93;;;;;;;32.20;28.38;99567.44;126591;1093;103016;-80
2021/05/23 06:14:44;;;;;;;2.63;1.50;;;;;;;32.37;27.78;99580.35;126569;1099;102955;-80
2021/05/23 06:17:32;;;;;;;2.57;1.37;;;;;;;32.24;28.21;99583.00;126560;1098;103016;-79
2021/05/23 06:20:20;;;;;;;2.00;1.47;;;;;;;32.52;28.43;99579.33;126535;1093;103059;-79
2021/05/23 06:23:09;;;;;;;3.43;1.80;;;;;;;33.01;28.33;99579.71;126487;1098;103110;-80
2021/05/23 06:25:56;;;;;;;2.40;1.33;;;;;;;33.78;27.22;99578.04;126595;1098;102910;-79
2021/05/23 06:28:45;;;;;;;3.57;1.70;;;;;;;34.28;27.17;99585.45;126517;1098;102997;-80
2021/05/23 06:31:33;;;;;;;2.10;1.30;;;;;;;34.43;25.91;99583.29;126517;1098;103030;-78
2021/05/23 06:34:21;;;;;;;2.10;1.33;;;;;;;34.09;25.13;99577.25;126478;1098;103081;-79
2021/05/23 06:37:09;;;;;;;2.10;1.50;;;;;;;34.01;24.76;99582.10;126492;1093;102932;-78
2021/05/23 06:39:57;;;;;;;2.45;1.30;;;;;;;33.92;24.94;99589.63;126567;1098;102934;-80
2021/05/23 06:42:45;;;;;;;2.80;1.43;;;;;;;33.56;24.10;99590.19;126579;1098;102944;-79
2021/05/23 06:45:33;;;;;;;2.53;1.20;;;;;;;31.71;25.14;99599.00;126585;1093;102947;-80
2021/05/23 06:48:21;;;;;;;2.70;1.67;;;;;;;30.58;26.40;99604.66;126545;1093;103078;-79
2021/05/23 06:51:09;;;;;;;4.57;1.30;;;;;;;30.23;26.10;99609.92;126558;1098;103395;-79
2021/05/23 06:53:57;;;;;;;3.47;1.40;;;;;;;30.32;25.94;99618.69;126617;1098;103004;-79
2021/05/23 06:56:45;;;;;;;2.27;1.40;;;;;;;30.46;25.47;99596.27;126586;1098;102936;-79
2021/05/23 06:59:33;;;;;;;2.90;1.50;;;;;;;30.33;25.58;99606.91;126585;1098;103079;-80
2021/05/23 07:02:21;;;;;;;2.40;1.23;;;;;;;30.59;25.99;99617.92;126509;1098;103018;-80
2021/05/23 07:05:10;;;;;;;1.93;1.37;;;;;;;29.61;25.77;99612.27;126731;1098;102927;-79
2021/05/23 07:07:57;;;;;;;2.47;1.33;;;;;;;28.62;26.81;99611.58;126564;1100;102799;-79
2021/05/23 07:10:45;;;;;;;3.93;1.43;;;;;;;28.76;27.10;99610.79;126523;1098;102943;-79
2021/05/23 07:13:33;;;;;;;2.33;1.40;;;;;;;29.61;26.78;99613.09;126521;1093;103023;-79
2021/05/23 07:16:21;;;;;;;4.27;1.40;;;;;;;30.58;26.26;99610.05;126466;1093;102985;-79
2021/05/23 07:19:09;;;;;;;3.53;1.60;;;;;;;31.23;25.22;99615.13;126543;1098;102923;-79
2021/05/23 07:21:56;;;;;;;4.50;1.30;;;;;;;31.51;24.85;99615.09;126752;1098;101815;-79
2021/05/23 07:24:44;;;;;;;3.40;1.40;;;;;;;31.71;25.13;99623.27;126594;1098;103041;-79
2021/05/23 07:27:32;;;;;;;2.67;1.20;;;;;;;32.03;24.59;99626.33;126598;1098;102971;-79
2021/05/23 07:30:21;;;;;;;2.23;1.40;;;;;;;32.48;24.33;99618.55;126560;1098;103013;-79
2021/05/23 07:33:10;;;;;;;3.00;1.43;;;;;;;33.05;23.58;99626.07;126509;1098;103080;-80
2021/05/23 07:35:57;;;;;;;6.13;1.40;;;;;;;33.33;23.32;99636.63;126566;1098;103074;-79
2021/05/23 07:38:45;;;;;;;2.43;1.40;;;;;;;32.45;23.82;99647.61;126571;1093;103045;-80
2021/05/23 07:41:33;;;;;;;2.40;1.20;;;;;;;31.41;24.21;99649.65;126597;1098;103002;-79
2021/05/23 07:44:21;;;;;;;2.13;1.23;;;;;;;30.24;25.05;99657.31;126558;1098;103084;-79
2021/05/23 07:47:09;;;;;;;1.73;1.10;;;;;;;29.34;25.65;99660.24;126413;1101;102955;-79
2021/05/23 07:49:57;;;;;;;2.50;1.27;;;;;;;28.74;25.82;99671.03;126568;1098;103074;-79
2021/05/23 07:52:45;;;;;;;2.45;1.10;;;;;;;28.83;26.05;99662.71;126567;1098;102953;-79
2021/05/23 07:55:33;;;;;;;2.67;1.00;;;;;;;28.58;26.20;99667.45;126542;1098;103011;-79
2021/05/23 07:58:23;;;;;;;3.90;1.30;;;;;;;28.51;26.23;99663.80;126560;1093;102923;-79
2021/05/23 08:01:13;;;;;;;1.70;0.90;;;;;;;28.82;25.55;99671.78;126584;1098;103942;-80
2021/05/23 08:04:01;;;;;;;1.63;1.10;;;;;;;29.00;26.10;99674.17;126574;1098;102949;-79
2021/05/23 08:06:49;;;;;;;2.53;1.17;;;;;;;28.57;25.52;99670.31;126580;1098;102930;-79
2021/05/23 08:09:37;;;;;;;1.77;1.10;;;;;;;28.27;26.68;99662.13;126624;1098;100714;-80
2021/05/23 08:12:25;;;;;;;2.23;1.07;;;;;;;28.17;26.46;99671.36;126550;1098;102933;-79
2021/05/23 08:15:15;;;;;;;1.73;1.00;;;;;;;28.15;26.32;99674.22;126482;1098;103252;-79
2021/05/23 08:18:03;;;;;;;1.50;0.80;;;;;;;27.58;27.16;99673.61;126553;1093;102999;-79
2021/05/23 08:20:54;;;;;;;1.60;1.00;;;;;;;26.72;27.25;99684.90;126570;1098;102967;-79
2021/05/23 08:23:43;;;;;;;2.13;1.00;;;;;;;25.89;27.14;99691.05;126590;1098;102960;-79
2021/05/23 08:26:32;;;;;;;1.07;0.77;;;;;;;25.56;28.15;99691.85;126564;1093;102969;-79
2021/05/23 08:29:20;;;;;;;1.73;0.90;;;;;;;25.69;28.46;99670.92;126426;1100;103250;-79
2021/05/23 08:32:07;;;;;;;1.27;0.80;;;;;;;25.95;28.66;99697.56;126573;1100;102921;-79
2021/05/23 08:34:55;;;;;;;1.33;0.87;;;;;;;26.78;28.00;99695.78;126487;1100;102923;-79
2021/05/23 08:37:44;;;;;;;1.53;0.87;;;;;;;27.49;27.89;99688.05;126602;1098;103033;-79
2021/05/23 08:40:37;;;;;;;5.00;1.73;;;;;;;27.94;27.10;99682.05;126526;1098;102934;-79
2021/05/23 08:43:28;;;;;;;3.40;2.47;;;;;;;28.43;26.81;99673.77;126535;1098;103107;-81
2021/05/23 08:46:18;;;;;;;5.57;3.57;;;;;;;28.81;25.82;99678.16;126731;1098;101830;-82
2021/05/23 08:49:05;;;;;;;3.43;1.57;;;;;;;29.14;26.16;99675.23;126693;1098;102911;-82
2021/05/23 08:51:53;;;;;;;2.60;1.37;;;;;;;29.49;25.41;99684.47;126774;1098;102934;-82
2021/05/23 08:54:41;;;;;;;1.93;0.97;;;;;;;29.58;24.80;99687.88;126790;1099;102991;-81
2021/05/23 08:57:30;;;;;;;2.80;1.43;;;;;;;29.46;24.89;99674.92;126688;1098;102896;-80
2021/05/23 09:00:18;;;;;;;2.80;1.43;;;;;;;28.84;24.68;99674.28;126976;1098;102957;-80
2021/05/23 09:03:11;;;;;;;3.67;1.13;;;;;;;28.50;25.73;99683.59;126558;1098;103013;-79
2021/05/23 09:05:59;;;;;;;2.40;1.07;;;;;;;28.77;25.57;99703.70;126552;1098;103059;-79
2021/05/23 09:08:59;;;;;;;8.17;6.23;;;;;;;29.04;25.92;99706.86;126565;1098;101981;-81
2021/05/23 09:11:53;;;;;;;3.13;2.13;;;;;;;29.25;25.90;99696.25;126612;1098;102951;-81
2021/05/23 09:14:49;;;;;;;4.50;2.00;;;;;;;29.09;25.63;99709.85;126644;1098;103020;-82
2021/05/23 09:17:37;;;;;;;2.83;1.30;;;;;;;29.08;25.07;99713.52;126641;1098;103074;-82
2021/05/23 09:20:25;;;;;;;6.70;3.90;;;;;;;28.88;24.54;99697.09;126645;1098;100406;-81
2021/05/23 09:23:20;;;;;;;2.23;1.70;;;;;;;28.43;25.28;99708.63;126374;1093;101356;-80
2021/05/23 09:26:07;;;;;;;3.10;2.37;;;;;;;28.02;25.36;99716.87;126638;1098;101292;-82
2021/05/23 09:29:04;;;;;;;2.00;1.30;;;;;;;27.57;26.24;99707.59;126630;1098;102923;-82
2021/05/23 09:31:58;;;;;;;10.03;5.45;;;;;;;27.16;26.84;99709.52;126607;1098;104935;-82
2021/05/23 09:34:49;;;;;;;2.97;1.97;;;;;;;27.25;27.04;99704.98;126661;1098;102949;-82
2021/05/23 09:37:38;;;;;;;2.53;1.77;;;;;;;27.52;26.68;99699.25;126645;1093;103023;-82
2021/05/23 09:40:30;;;;;;;9.47;4.50;;;;;;;27.78;27.02;99699.02;126520;1100;102960;-82
2021/05/23 09:43:22;;;;;;;5.53;3.30;;;;;;;28.29;27.15;99707.53;126571;1093;102923;-84
2021/05/23 09:46:09;;;;;;;7.97;5.10;;;;;;;28.62;26.19;99702.80;126626;1098;102950;-82
2021/05/23 09:48:57;;;;;;;2.73;1.80;;;;;;;28.44;26.02;99710.30;126604;1098;103017;-82
2021/05/23 09:51:55;;;;;;;4.87;2.87;;;;;;;28.41;26.20;99719.55;126615;1098;102975;-81
2021/05/23 09:54:46;;;;;;;2.73;1.70;;;;;;;28.10;26.08;99718.66;126470;1098;103081;-82
2021/05/23 09:57:34;;;;;;;4.00;3.27;;;;;;;27.38;26.76;99710.66;126773;1098;103030;-82
2021/05/23 10:00:22;;;;;;;8.33;5.20;;;;;;;27.61;26.77;99708.92;126567;1098;102953;-82
2021/05/23 10:03:21;;;;;;;3.70;2.13;;;;;;;27.84;26.49;99711.75;126559;1099;102998;-83
2021/05/23 10:06:09;;;;;;;4.93;3.03;;;;;;;27.64;26.45;99718.48;126772;1098;103029;-82
2021/05/23 10:08:58;;;;;;;8.43;5.13;;;;;;;27.39;26.64;99710.48;126563;1098;103073;-82
2021/05/23 10:11:48;;;;;;;5.40;3.00;;;;;;;27.35;26.59;99711.84;126586;1099;102988;-82
2021/05/23 10:14:38;;;;;;;2.77;1.70;;;;;;;27.44;27.13;99723.36;126531;1098;103051;-82
2021/05/23 10:17:27;;;;;;;5.70;3.00;;;;;;;27.36;26.25;99708.16;126654;1093;103040;-82
2021/05/23 10:20:14;;;;;;;4.03;2.10;;;;;;;26.69;26.82;99720.01;126534;1098;103145;-83
2021/05/23 10:23:18;;;;;;;2.20;1.20;;;;;;;26.81;26.94;99721.37;126580;1099;103743;-82
2021/05/23 10:26:10;;;;;;;1.63;1.00;;;;;;;26.80;26.67;99725.05;126610;1093;102926;-82
2021/05/23 10:28:59;;;;;;;5.83;3.50;;;;;;;26.63;27.06;99726.03;126622;1099;103027;-82
2021/05/23 10:31:48;;;;;;;5.13;1.93;;;;;;;26.57;27.53;99735.56;126637;1098;102931;-82
2021/05/23 10:34:46;;;;;;;10.10;5.40;;;;;;;26.07;27.41;99720.34;126618;1099;102965;-82
2021/05/23 10:37:34;;;;;;;5.20;3.27;;;;;;;25.52;27.77;99725.21;126588;1098;102945;-82
2021/05/23 10:40:27;;;;;;;5.97;2.87;;;;;;;25.39;28.29;99735.47;126544;1098;102945;-82
2021/05/23 10:43:28;;;;;;;6.77;1.77;;;;;;;25.02;28.24;99735.69;126672;1099;103088;-80
2021/05/23 10:46:16;;;;;;;3.33;2.00;;;;;;;24.86;29.40;99737.19;126590;1098;102956;-81
2021/05/23 10:49:07;;;;;;;4.20;2.87;;;;;;;24.74;29.19;99735.72;126654;1098;103020;-77
2021/05/23 10:51:58;;;;;;;2.57;1.30;;;;;;;24.70;29.93;99737.02;126454;1098;103141;-78
2021/05/23 10:55:04;;;;;;;6.00;1.83;;;;;;;24.75;29.74;99739.23;126498;1093;102802;-78
2021/05/23 10:57:54;;;;;;;3.77;1.90;;;;;;;24.78;29.37;99754.95;126495;1093;103399;-77
2021/05/23 11:00:51;;;;;;;4.23;2.20;;;;;;;24.71;29.42;99747.54;126482;1098;103013;-78
2021/05/23 11:03:39;;;;;;;3.77;2.13;;;;;;;24.48;29.51;99764.97;126557;1098;103001;-79
2021/05/23 11:06:26;;;;;;;2.47;1.60;;;;;;;23.97;29.71;99750.33;126454;1093;102750;-79
2021/05/23 11:09:33;;;;;;;;;;;;;;;;;;;;;
2021/05/23 11:12:22;;;;;;;3.77;2.13;;;;;;;23.44;29.67;99750.89;126670;1098;102946;-79
2021/05/23 11:15:11;;;;;;;4.00;2.70;;;;;;;23.01;30.27;99758.52;126512;1098;103066;-78
2021/05/23 11:17:59;;;;;;;3.60;1.50;;;;;;;22.94;30.96;99749.41;126509;1098;102968;-79
2021/05/23 11:21:04;;;;;;;4.25;1.70;;;;;;;22.82;30.84;99746.06;126476;1098;103113;-79
2021/05/23 11:23:54;;;;;;;5.30;2.73;;;;;;;22.69;30.99;99750.77;126482;1098;103062;-78
2021/05/23 11:26:43;;;;;;;4.47;2.73;;;;;;;22.69;30.68;99751.61;126489;1098;103021;-79
2021/05/23 11:29:31;;;;;;;5.17;2.80;;;;;;;22.79;31.18;99755.10;126482;1098;103033;-79
2021/05/23 11:32:19;;;;;;;2.13;1.77;;;;;;;22.89;30.85;99748.02;126505;1098;103388;-79
2021/05/23 11:35:08;;;;;;;4.83;1.97;;;;;;;22.88;30.52;99756.97;126469;1098;102994;-79
2021/05/23 11:37:57;;;;;;;2.77;1.73;;;;;;;22.96;30.23;99758.08;126688;1098;102869;-79
2021/05/23 11:40:45;;;;;;;3.13;1.57;;;;;;;22.99;30.63;99760.48;126504;1098;102928;-79
2021/05/23 11:43:33;;;;;;;2.20;1.03;;;;;;;22.96;30.22;99763.40;126534;1098;102945;-79
2021/05/23 11:46:22;;;;;;;1.43;0.77;;;;;;;22.71;30.00;99773.58;126619;1098;103047;-79
2021/05/23 11:49:23;;;;;;;2.20;1.30;;;;;;;22.52;30.92;99776.20;126474;1098;103093;-79
2021/05/23 11:52:10;;;;;;;3.20;1.70;;;;;;;22.30;30.99;99762.17;126522;1093;103085;-79
2021/05/23 11:54:59;;;;;;;3.23;1.47;;;;;;;22.23;31.51;99755.70;126475;1098;103026;-79
2021/05/23 11:57:50;;;;;;;4.43;2.60;;;;;;;22.00;31.45;99759.52;126549;1098;102987;-79
2021/05/23 12:00:39;;;;;;;5.87;3.37;;;;;;;21.73;31.82;99759.27;126546;1098;103008;-79
2021/05/23 12:03:26;;;;;;;3.57;2.10;;;;;;;21.67;31.67;99756.15;126431;1098;103184;-79
2021/05/23 12:06:17;;;;;;;3.53;1.90;;;;;;;21.61;32.02;99769.95;126520;1098;102917;-79
2021/05/23 12:09:16;;;;;;;4.60;2.63;;;;;;;21.51;31.90;99763.73;126493;1098;102948;-79
2021/05/23 12:12:07;;;;;;;2.67;1.40;;;;;;;21.57;32.79;99768.55;126527;1098;103035;-79
2021/05/23 12:14:55;;;;;;;2.73;1.53;;;;;;;21.54;32.96;99773.25;126475;1099;102981;-79
2021/05/23 12:17:55;;;;;;;2.40;1.67;;;;;;;21.39;32.88;99754.19;126509;1098;102948;-79
2021/05/23 12:20:47;;;;;;;5.13;2.60;;;;;;;21.22;32.55;99762.70;126514;1098;103063;-78
2021/05/23 12:23:36;;;;;;;2.27;1.33;;;;;;;21.03;32.65;99768.69;126435;1098;102939;-78
2021/05/23 12:26:26;;;;;;;2.43;1.30;;;;;;;20.87;32.14;99769.12;126512;1098;103383;-78
2021/05/23 12:29:24;;;;;;;2.13;1.00;;;;;;;20.76;31.93;99755.89;126461;1098;103615;-79
2021/05/23 12:32:12;;;;;;;;;;;;;;;20.63;32.68;99787.84;126578;1098;103134;-80
2021/05/23 12:35:17;;;;;;;2.93;1.40;;;;;;;20.66;33.00;99773.53;126525;1099;102814;-79
2021/05/23 12:38:12;;;;;;;1.07;0.70;;;;;;;20.79;33.25;99769.73;126518;1098;103101;-78
2021/05/23 12:41:01;;;;;;;1.20;0.90;;;;;;;20.96;33.09;99767.50;126527;1099;103046;-79
2021/05/23 12:43:50;;;;;;;4.60;2.83;;;;;;;21.00;32.49;99759.16;126516;1098;103107;-79
2021/05/23 12:46:37;;;;;;;4.97;3.33;;;;;;;21.04;32.81;99773.86;126428;1098;102951;-79
2021/05/23 12:49:26;;;;;;;3.83;2.30;;;;;;;21.10;32.66;99765.39;126544;1098;102903;-78
2021/05/23 12:52:17;;;;;;;3.37;1.30;;;;;;;21.19;32.49;99779.71;126515;1093;102904;-79
2021/05/23 12:55:16;;;;;;;2.77;1.40;;;;;;;21.19;32.30;99773.56;126522;1098;102366;-79
2021/05/23 12:58:12;;;;;;;4.73;2.80;;;;;;;21.10;32.48;99781.30;126669;1098;103046;-78
2021/05/23 13:01:19;;;;;;;3.47;1.20;;;;;;;21.11;32.51;99782.14;126379;1098;103016;-78
2021/05/23 13:04:15;;;;;;;2.23;1.20;;;;;;;21.02;32.75;99785.58;126484;1093;102955;-79
2021/05/23 13:07:07;;;;;;;3.30;1.10;;;;;;;20.93;32.64;99779.20;126539;1093;105411;-78
2021/05/23 13:09:54;;;;;;;2.40;1.60;;;;;;;20.88;33.22;99789.35;126460;1098;103014;-78